Time,TemperatureF,DewpointF,PressureIn,WindDirection,WindDirectionDegrees,WindSpeedMPH,WindSpeedGustMPH,Humidity,HourlyPrecipIn,Conditions,Clouds,dailyrainin,SoftwareType,DateUTC
2013-01-14 00:01:00,43.5,39.9,29.98,SE,135,0.1,0.0,87,0.00,RA,,0.00,WeatherDisplay:10.37,2013-01-14 05:01:00,
2013-01-14 00:04:00,43.5,39.9,29.98,SE,135,0.1,0.0,87,0.00,RA,,0.00,WeatherDisplay:10.37,2013-01-14 05:04:00,
2013-01-14 00:09:00,43.5,39.9,29.98,SE,135,0.1,0.0,87,0.00,RA,,0.00,WeatherDisplay:10.37,2013-01-14 05:09:00,
2013-01-14 00:12:00,43.2,39.3,29.98,SSE,158,0.0,0.0,86,0.00,CLR,,0.00,WeatherDisplay:10.37,2013-01-14 05:12:00,
2013-01-14 00:17:00,43.3,39.4,29.97,ENE,68,0.2,0.0,86,0.00,CLR,,0.00,WeatherDisplay:10.37,2013-01-14 05:17:00,
2013-01-14 00:22:00,43.3,39.4,29.97,East,90,0.2,0.0,86,0.00,CLR,,0.00,WeatherDisplay:10.37,2013-01-14 05:22:00,
2013-01-14 00:27:00,43.0,39.1,29.97,SSW,202,0.1,0.0,86,0.00,CLR,,0.00,WeatherDisplay:10.37,2013-01-14 05:27:00,
2013-01-14 00:32:00,43.0,39.1,29.97,SSW,202,0.0,0.0,86,0.00,CLR,,0.00,WeatherDisplay:10.37,2013-01-14 05:32:00,
2013-01-14 00:37:00,42.8,39.2,29.97,SW,225,0.2,0.0,87,0.00,CLR,,0.00,WeatherDisplay:10.37,2013-01-14 05:37:00,
2013-01-14 00:42:00,42.8,39.2,29.97,ENE,68,0.2,0.0,87,0.00,CLR,,0.00,WeatherDisplay:10.37,2013-01-14 05:42:00,
2013-01-14 00:47:00,42.8,39.2,29.97,NNW,338,0.0,0.0,87,0.00,CLR,,0.00,WeatherDisplay:10.37,2013-01-14 05:47:00,
2013-01-14 00:52:00,42.3,38.7,29.97,East,90,0.0,0.0,87,0.00,CLR,,0.00,WeatherDisplay:10.37,2013-01-14 05:52:00,
2013-01-14 00:57:00,42.1,38.5,29.97,East,90,0.0,0.0,87,0.00,CLR,,0.00,WeatherDisplay:10.37,2013-01-14 05:57:00,
2013-01-14 01:02:00,41.9,38.3,29.97,East,90,0.0,0.0,87,0.00,CLR,,0.00,WeatherDisplay:10.37,2013-01-14 06:02:00,
2013-01-14 01:07:00,41.9,38.3,29.97,SW,225,0.0,0.0,87,0.00,CLR,,0.00,WeatherDisplay:10.37,2013-01-14 06:07:00,
2013-01-14 01:12:00,41.9,38.3,29.97,SSE,158,0.1,0.0,87,0.00,CLR,,0.00,WeatherDisplay:10.37,2013-01-14 06:12:00,
2013-01-14 01:17:00,41.5,37.7,29.97,SE,135,0.1,0.0,86,0.00,CLR,,0.00,WeatherDisplay:10.37,2013-01-14 06:17:00,
2013-01-14 01:22:00,41.4,37.5,29.96,SE,135,0.0,0.0,86,0.00,CLR,,0.00,WeatherDisplay:10.37,2013-01-14 06:22:00,
2013-01-14 01:27:00,41.5,37.7,29.96,SE,135,0.0,0.0,86,0.00,CLR,,0.00,WeatherDisplay:10.37,2013-01-14 06:27:00,
2013-01-14 01:32:00,41.4,37.5,29.96,SE,135,0.0,0.0,86,0.00,CLR,,0.00,WeatherDisplay:10.37,2013-01-14 06:32:00,
2013-01-14 01:37:00,41.4,37.5,29.96,East,90,0.0,0.0,86,0.00,CLR,,0.00,WeatherDisplay:10.37,2013-01-14 06:37:00,
2013-01-14 01:42:00,41.5,37.7,29.97,ENE,68,0.2,1.1,86,0.00,CLR,,0.00,WeatherDisplay:10.37,2013-01-14 06:42:00,
2013-01-14 01:47:00,41.4,37.5,29.97,NW,315,0.3,1.1,86,0.00,CLR,,0.00,WeatherDisplay:10.37,2013-01-14 06:47:00,
2013-01-14 01:52:00,41.9,38.3,29.97,SE,135,0.1,0.0,87,0.00,CLR,,0.00,WeatherDisplay:10.37,2013-01-14 06:52:00,
2013-01-14 01:57:00,41.9,38.3,29.97,SE,135,0.3,1.1,87,0.00,CLR,,0.00,WeatherDisplay:10.37,2013-01-14 06:57:00,
2013-01-14 02:02:00,42.3,38.7,29.97,South,180,0.6,0.0,87,0.00,CLR,,0.00,WeatherDisplay:10.37,2013-01-14 07:02:00,
2013-01-14 02:07:00,42.1,38.5,29.97,SSE,158,0.7,2.3,87,0.00,CLR,,0.00,WeatherDisplay:10.37,2013-01-14 07:07:00,
2013-01-14 02:12:00,42.1,38.5,29.97,SSE,158,0.3,2.3,87,0.00,CLR,,0.00,WeatherDisplay:10.37,2013-01-14 07:12:00,
2013-01-14 02:17:00,42.1,38.5,29.97,WSW,248,0.5,1.1,87,0.00,CLR,,0.00,WeatherDisplay:10.37,2013-01-14 07:17:00,
2013-01-14 02:22:00,42.6,39.0,29.97,NE,45,0.8,1.1,87,0.00,CLR,,0.00,WeatherDisplay:10.37,2013-01-14 07:22:00,
2013-01-14 02:27:00,42.8,39.2,29.97,SSW,202,0.7,0.0,87,0.00,CLR,,0.00,WeatherDisplay:10.37,2013-01-14 07:27:00,
2013-01-14 02:32:00,43.0,39.4,29.97,SSE,158,0.3,2.3,87,0.00,CLR,,0.00,WeatherDisplay:10.37,2013-01-14 07:32:00,
2013-01-14 02:37:00,43.0,39.4,29.97,ESE,112,0.3,0.0,87,0.00,CLR,,0.00,WeatherDisplay:10.37,2013-01-14 07:37:00,
2013-01-14 02:42:00,43.0,39.4,29.97,South,180,0.5,1.1,87,0.00,CLR,,0.00,WeatherDisplay:10.37,2013-01-14 07:42:00,
2013-01-14 02:47:00,43.5,39.9,29.97,South,180,1.1,2.3,87,0.00,CLR,,0.00,WeatherDisplay:10.37,2013-01-14 07:47:00,
2013-01-14 02:52:00,44.1,40.4,29.97,SSE,158,1.1,2.3,87,0.00,CLR,,0.00,WeatherDisplay:10.37,2013-01-14 07:52:00,
2013-01-14 02:57:00,43.7,40.1,29.96,East,90,0.5,2.3,87,0.00,CLR,,0.00,WeatherDisplay:10.37,2013-01-14 07:57:00,
2013-01-14 03:02:00,43.9,40.3,29.96,South,180,0.5,2.3,87,0.00,CLR,,0.00,WeatherDisplay:10.37,2013-01-14 08:02:00,
2013-01-14 03:07:00,43.9,40.3,29.96,South,180,0.5,2.3,87,0.00,CLR,,0.00,WeatherDisplay:10.37,2013-01-14 08:07:00,
2013-01-14 03:12:00,43.7,40.1,29.96,SW,225,0.6,1.1,87,0.00,CLR,,0.00,WeatherDisplay:10.37,2013-01-14 08:12:00,
2013-01-14 03:17:00,43.5,39.9,29.95,East,90,0.7,3.5,87,0.00,CLR,,0.00,WeatherDisplay:10.37,2013-01-14 08:17:00,
2013-01-14 03:22:00,43.5,39.9,29.95,SSW,202,0.3,0.0,87,0.00,CLR,,0.00,WeatherDisplay:10.37,2013-01-14 08:22:00,
2013-01-14 03:27:00,43.3,39.7,29.95,SE,135,0.0,0.0,87,0.00,CLR,,0.00,WeatherDisplay:10.37,2013-01-14 08:27:00,
2013-01-14 03:32:00,43.3,39.7,29.95,SW,225,0.3,0.0,87,0.00,CLR,,0.00,WeatherDisplay:10.37,2013-01-14 08:32:00,
2013-01-14 03:37:00,44.2,40.6,29.94,SSE,158,1.0,2.3,87,0.00,CLR,,0.00,WeatherDisplay:10.37,2013-01-14 08:37:00,
2013-01-14 03:42:00,44.1,40.4,29.94,SW,225,1.0,1.1,87,0.00,CLR,,0.00,WeatherDisplay:10.37,2013-01-14 08:42:00,
2013-01-14 03:48:00,43.7,40.1,29.94,South,180,0.7,1.1,87,0.00,CLR,,0.00,WeatherDisplay:10.37,2013-01-14 08:48:00,
2013-01-14 03:53:00,44.1,40.4,29.94,South,180,1.1,2.3,87,0.00,CLR,,0.00,WeatherDisplay:10.37,2013-01-14 08:53:00,
2013-01-14 03:58:00,44.1,40.4,29.94,WSW,248,1.6,2.3,87,0.00,CLR,,0.00,WeatherDisplay:10.37,2013-01-14 08:58:00,
2013-01-14 04:03:00,44.2,40.6,29.94,SW,225,2.0,2.3,87,0.00,CLR,,0.00,WeatherDisplay:10.37,2013-01-14 09:03:00,
2013-01-14 04:08:00,45.0,41.3,29.94,SW,225,2.2,2.3,87,0.00,CLR,,0.00,WeatherDisplay:10.37,2013-01-14 09:08:00,
2013-01-14 04:13:00,45.1,41.5,29.94,South,180,2.4,4.6,87,0.00,CLR,,0.00,WeatherDisplay:10.37,2013-01-14 09:13:00,
2013-01-14 04:18:00,45.0,41.3,29.94,SSW,202,2.1,3.5,87,0.00,CLR,,0.00,WeatherDisplay:10.37,2013-01-14 09:18:00,
2013-01-14 04:23:00,45.0,41.3,29.94,SW,225,1.6,0.0,87,0.00,CLR,,0.00,WeatherDisplay:10.37,2013-01-14 09:23:00,
2013-01-14 04:28:00,44.8,41.1,29.94,South,180,1.1,2.3,87,0.00,CLR,,0.00,WeatherDisplay:10.37,2013-01-14 09:28:00,
2013-01-14 04:33:00,44.8,41.1,29.94,SW,225,1.1,3.5,87,0.00,CLR,,0.00,WeatherDisplay:10.37,2013-01-14 09:33:00,
2013-01-14 04:38:00,45.1,41.5,29.93,ESE,112,1.1,2.3,87,0.00,CLR,,0.00,WeatherDisplay:10.37,2013-01-14 09:38:00,
2013-01-14 04:43:00,45.5,41.9,29.93,SSW,202,1.4,2.3,87,0.00,CLR,,0.00,WeatherDisplay:10.37,2013-01-14 09:43:00,
2013-01-14 04:48:00,46.0,42.4,29.93,SW,225,2.2,2.3,87,0.00,CLR,,0.00,WeatherDisplay:10.37,2013-01-14 09:48:00,
2013-01-14 04:53:00,46.2,42.6,29.93,SW,225,2.2,2.3,87,0.00,CLR,,0.00,WeatherDisplay:10.37,2013-01-14 09:53:00,
2013-01-14 04:58:00,46.2,42.6,29.92,SSW,202,2.1,3.5,87,0.00,CLR,,0.00,WeatherDisplay:10.37,2013-01-14 09:58:00,
2013-01-14 05:03:00,46.2,42.6,29.92,SE,135,2.0,2.3,87,0.00,CLR,,0.00,WeatherDisplay:10.37,2013-01-14 10:03:00,
2013-01-14 05:08:00,45.7,42.0,29.92,SSE,158,1.1,0.0,87,0.00,CLR,,0.00,WeatherDisplay:10.37,2013-01-14 10:08:00,
2013-01-14 05:13:00,46.0,42.4,29.92,South,180,1.1,3.5,87,0.00,CLR,,0.00,WeatherDisplay:10.37,2013-01-14 10:13:00,
2013-01-14 05:18:00,46.2,42.6,29.92,NW,315,1.1,2.3,87,0.00,CLR,,0.00,WeatherDisplay:10.37,2013-01-14 10:18:00,
2013-01-14 05:23:00,45.7,42.0,29.92,South,180,0.9,0.0,87,0.00,CLR,,0.00,WeatherDisplay:10.37,2013-01-14 10:23:00,
2013-01-14 05:28:00,45.9,42.2,29.92,South,180,1.7,4.6,87,0.00,CLR,,0.00,WeatherDisplay:10.37,2013-01-14 10:28:00,
2013-01-14 05:33:00,45.9,42.2,29.92,NNE,22,1.7,2.3,87,0.00,CLR,,0.00,WeatherDisplay:10.37,2013-01-14 10:33:00,
2013-01-14 05:39:00,46.2,42.6,29.92,West,270,1.3,2.3,87,0.00,CLR,,0.00,WeatherDisplay:10.37,2013-01-14 10:39:00,
2013-01-14 05:44:00,46.2,42.6,29.92,South,180,1.1,6.9,87,0.00,CLR,,0.00,WeatherDisplay:10.37,2013-01-14 10:44:00,
2013-01-14 05:49:00,46.2,42.6,29.92,South,180,1.3,1.3,87,0.00,CLR,,0.00,WeatherDisplay:10.37,2013-01-14 10:49:00,
2013-01-14 05:54:00,46.2,42.6,29.92,SW,225,2.0,2.3,87,0.00,CLR,,0.00,WeatherDisplay:10.37,2013-01-14 10:54:00,
2013-01-14 05:59:00,46.4,42.7,29.92,South,180,2.0,3.5,87,0.00,CLR,,0.00,WeatherDisplay:10.37,2013-01-14 10:59:00,
2013-01-14 06:04:00,46.4,42.7,29.92,South,180,2.0,3.5,87,0.00,CLR,,0.00,WeatherDisplay:10.37,2013-01-14 11:04:00,
2013-01-14 06:09:00,46.4,42.7,29.92,NNE,22,2.0,3.5,87,0.00,CLR,,0.00,WeatherDisplay:10.37,2013-01-14 11:09:00,
2013-01-14 06:14:00,46.9,43.3,29.92,SE,135,2.0,2.3,87,0.00,CLR,,0.00,WeatherDisplay:10.37,2013-01-14 11:14:00,
2013-01-14 06:19:00,46.6,42.9,29.90,SW,225,1.6,0.0,87,0.00,CLR,,0.00,WeatherDisplay:10.37,2013-01-14 11:19:00,
2013-01-14 06:24:00,46.2,42.6,29.90,South,180,1.1,2.4,87,0.00,CLR,,0.00,WeatherDisplay:10.37,2013-01-14 11:24:00,
2013-01-14 06:29:00,46.2,42.6,29.90,NNW,338,1.3,0.0,87,0.00,CLR,,0.00,WeatherDisplay:10.37,2013-01-14 11:29:00,
2013-01-14 06:34:00,46.6,42.9,29.90,SSE,158,2.0,2.3,87,0.00,CLR,,0.00,WeatherDisplay:10.37,2013-01-14 11:34:00,
2013-01-14 06:39:00,46.6,42.9,29.88,WSW,248,2.6,5.8,87,0.00,CLR,,0.00,WeatherDisplay:10.37,2013-01-14 11:39:00,
2013-01-14 06:44:00,46.8,43.1,29.88,South,180,3.0,6.9,87,0.00,CLR,,0.00,WeatherDisplay:10.37,2013-01-14 11:44:00,
2013-01-14 06:49:00,46.9,43.3,29.88,South,180,3.7,8.1,87,0.00,CLR,,0.00,WeatherDisplay:10.37,2013-01-14 11:49:00,
2013-01-14 06:54:00,47.1,43.4,29.88,SSE,158,3.9,5.8,87,0.00,CLR,,0.00,WeatherDisplay:10.37,2013-01-14 11:54:00,
2013-01-14 06:59:00,47.7,44.0,29.84,SW,225,3.7,3.7,87,0.00,CLR,,0.00,WeatherDisplay:10.37,2013-01-14 11:59:00,
2013-01-14 07:04:00,47.8,44.2,29.84,WSW,248,2.9,4.6,87,0.00,CLR,,0.00,WeatherDisplay:10.37,2013-01-14 12:04:00,
2013-01-14 07:09:00,47.8,44.2,29.84,NNW,338,2.3,2.3,87,0.00,CLR,,0.00,WeatherDisplay:10.37,2013-01-14 12:09:00,
2013-01-14 07:14:00,48.2,44.5,29.84,SSW,202,2.6,5.8,87,0.00,CLR,,0.00,WeatherDisplay:10.37,2013-01-14 12:14:00,
2013-01-14 07:19:00,47.7,44.0,29.90,SE,135,2.3,2.3,87,0.00,CLR,,0.00,WeatherDisplay:10.37,2013-01-14 12:19:00,
2013-01-14 07:24:00,47.7,44.0,29.90,NNW,338,1.8,5.8,87,0.00,CLR,,0.00,WeatherDisplay:10.37,2013-01-14 12:24:00,
2013-01-14 07:29:00,48.0,44.3,29.90,WNW,292,2.4,9.2,87,0.00,CLR,,0.00,WeatherDisplay:10.37,2013-01-14 12:29:00,
2013-01-14 07:35:00,48.0,44.3,29.90,NNW,338,2.4,2.4,87,0.00,CLR,,0.00,WeatherDisplay:10.37,2013-01-14 12:35:00,
2013-01-14 07:40:00,48.4,44.7,29.91,WSW,248,2.3,6.9,87,0.00,CLR,,0.00,WeatherDisplay:10.37,2013-01-14 12:40:00,
2013-01-14 07:45:00,48.4,44.7,29.91,NNW,338,2.3,2.3,87,0.00,CLR,,0.00,WeatherDisplay:10.37,2013-01-14 12:45:00,
2013-01-14 07:50:00,48.4,44.7,29.91,WNW,292,2.6,3.5,87,0.00,CLR,,0.00,WeatherDisplay:10.37,2013-01-14 12:50:00,
2013-01-14 07:56:00,48.0,44.3,29.91,WSW,248,2.5,4.6,87,0.00,CLR,,0.00,WeatherDisplay:10.37,2013-01-14 12:56:00,
2013-01-14 08:01:00,48.4,44.7,29.92,SSW,202,2.4,4.6,87,0.00,CLR,,0.00,WeatherDisplay:10.37,2013-01-14 13:01:00,
2013-01-14 08:06:00,48.7,45.0,29.92,SSE,158,2.8,9.2,87,0.00,CLR,,0.00,WeatherDisplay:10.37,2013-01-14 13:06:00,
2013-01-14 08:11:00,49.1,45.7,29.92,NW,315,3.5,6.9,88,0.00,CLR,,0.00,WeatherDisplay:10.37,2013-01-14 13:11:00,
2013-01-14 08:16:00,49.1,45.7,29.92,WSW,248,4.0,8.1,88,0.00,CLR,,0.00,WeatherDisplay:10.37,2013-01-14 13:16:00,
2013-01-14 08:21:00,49.1,45.4,29.92,NE,45,3.8,4.6,87,0.00,CLR,,0.00,WeatherDisplay:10.37,2013-01-14 13:21:00,
2013-01-14 08:26:00,49.3,45.6,29.92,WSW,248,4.1,5.8,87,0.00,CLR,,0.00,WeatherDisplay:10.37,2013-01-14 13:26:00,
2013-01-14 08:31:00,49.5,45.8,29.92,SW,225,4.1,4.6,87,0.00,CLR,,0.00,WeatherDisplay:10.37,2013-01-14 13:31:00,
2013-01-14 08:36:00,49.3,45.6,29.92,SW,225,3.3,3.5,87,0.00,CLR,,0.00,WeatherDisplay:10.37,2013-01-14 13:36:00,
2013-01-14 08:41:00,49.1,45.4,29.94,NNW,338,2.9,2.9,87,0.00,CLR,,0.00,WeatherDisplay:10.37,2013-01-14 13:41:00,
2013-01-14 08:46:00,49.8,46.1,29.94,NW,315,3.5,11.5,87,0.00,CLR,,0.00,WeatherDisplay:10.37,2013-01-14 13:46:00,
2013-01-14 08:51:00,49.8,46.1,29.94,SSW,202,4.0,6.9,87,0.00,CLR,,0.00,WeatherDisplay:10.37,2013-01-14 13:51:00,
2013-01-14 08:56:00,49.3,45.6,29.94,WSW,248,3.9,5.8,87,0.00,CLR,,0.00,WeatherDisplay:10.37,2013-01-14 13:56:00,
2013-01-14 09:01:00,49.5,45.8,29.95,WSW,248,3.5,4.6,87,0.00,OVC,,0.00,WeatherDisplay:10.37,2013-01-14 14:01:00,
2013-01-14 09:06:00,49.5,45.8,29.95,SW,225,2.6,6.9,87,0.00,OVC,,0.00,WeatherDisplay:10.37,2013-01-14 14:06:00,
2013-01-14 09:11:00,49.3,45.6,29.95,South,180,2.2,4.6,87,0.00,OVC,,0.00,WeatherDisplay:10.37,2013-01-14 14:11:00,
2013-01-14 09:16:00,49.3,45.6,29.95,SW,225,2.6,4.6,87,0.00,OVC,,0.00,WeatherDisplay:10.37,2013-01-14 14:16:00,
2013-01-14 09:21:00,49.3,45.6,29.97,South,180,2.6,3.5,87,0.00,OVC,,0.00,WeatherDisplay:10.37,2013-01-14 14:21:00,
2013-01-14 09:26:00,49.5,45.8,29.97,WSW,248,2.4,3.5,87,0.00,OVC,,0.00,WeatherDisplay:10.37,2013-01-14 14:26:00,
2013-01-14 09:31:00,49.5,45.8,29.97,West,270,2.3,2.3,87,0.00,OVC,,0.00,WeatherDisplay:10.37,2013-01-14 14:31:00,
2013-01-14 09:36:00,49.5,45.8,29.97,NE,45,2.2,4.6,87,0.00,OVC,,0.00,WeatherDisplay:10.37,2013-01-14 14:36:00,
2013-01-14 09:41:00,49.8,46.1,30.01,NNW,338,2.0,2.3,87,0.00,OVC,,0.00,WeatherDisplay:10.37,2013-01-14 14:41:00,
2013-01-14 09:46:00,49.8,46.1,30.01,NNW,338,2.0,3.5,87,0.00,OVC,,0.00,WeatherDisplay:10.37,2013-01-14 14:46:00,
2013-01-14 09:51:00,50.0,46.3,30.01,North,0,2.5,9.2,87,0.00,OVC,,0.00,WeatherDisplay:10.37,2013-01-14 14:51:00,
2013-01-14 09:56:00,50.2,46.5,30.01,SE,135,3.3,10.4,87,0.00,OVC,,0.00,WeatherDisplay:10.37,2013-01-14 14:56:00,
2013-01-14 10:01:00,50.0,46.3,30.02,NW,315,2.9,3.5,87,0.00,OVC,,0.00,WeatherDisplay:10.37,2013-01-14 15:01:00,
2013-01-14 10:06:00,50.0,46.3,30.02,SW,225,2.6,2.6,87,0.00,OVC,,0.00,WeatherDisplay:10.37,2013-01-14 15:06:00,
2013-01-14 10:11:00,50.0,46.3,30.02,SW,225,2.6,4.6,87,0.00,OVC,,0.00,WeatherDisplay:10.37,2013-01-14 15:11:00,
2013-01-14 10:16:00,50.2,46.5,30.02,WNW,292,2.6,2.6,87,0.00,OVC,,0.00,WeatherDisplay:10.37,2013-01-14 15:16:00,
2013-01-14 10:21:00,49.8,46.1,30.06,SW,225,2.5,4.6,87,0.00,OVC,,0.00,WeatherDisplay:10.37,2013-01-14 15:21:00,
2013-01-14 10:26:00,49.8,46.1,30.06,SW,225,2.2,0.0,87,0.00,OVC,,0.00,WeatherDisplay:10.37,2013-01-14 15:26:00,
2013-01-14 10:31:00,49.8,46.1,30.06,South,180,1.8,2.3,87,0.00,OVC,,0.00,WeatherDisplay:10.37,2013-01-14 15:31:00,
2013-01-14 10:36:00,49.8,46.1,30.06,NW,315,1.1,1.1,87,0.00,OVC,,0.00,WeatherDisplay:10.37,2013-01-14 15:36:00,
2013-01-14 10:41:00,50.0,46.0,30.06,South,180,1.1,2.3,86,0.00,OVC,,0.00,WeatherDisplay:10.37,2013-01-14 15:41:00,
2013-01-14 10:46:00,50.2,46.2,30.06,South,180,1.7,2.3,86,0.00,OVC,,0.00,WeatherDisplay:10.37,2013-01-14 15:46:00,
2013-01-14 10:51:00,50.0,46.0,30.06,SW,225,2.0,3.5,86,0.00,OVC,,0.00,WeatherDisplay:10.37,2013-01-14 15:51:00,
2013-01-14 10:56:00,49.6,45.6,30.06,South,180,1.7,2.3,86,0.00,OVC,,0.00,WeatherDisplay:10.37,2013-01-14 15:56:00,
2013-01-14 11:01:00,50.0,46.0,30.06,NNW,338,1.1,2.3,86,0.00,OVC,,0.00,WeatherDisplay:10.37,2013-01-14 16:01:00,
2013-01-14 11:06:00,50.2,46.2,30.06,WSW,248,1.6,2.3,86,0.00,OVC,,0.00,WeatherDisplay:10.37,2013-01-14 16:06:00,
2013-01-14 11:11:00,50.0,46.0,30.06,SW,225,1.1,3.5,86,0.00,OVC,,0.00,WeatherDisplay:10.37,2013-01-14 16:11:00,
2013-01-14 11:16:00,49.8,45.8,30.06,SW,225,1.3,1.3,86,0.00,OVC,,0.00,WeatherDisplay:10.37,2013-01-14 16:16:00,
2013-01-14 11:21:00,49.5,45.4,30.01,WNW,292,1.1,2.3,86,0.00,OVC,,0.00,WeatherDisplay:10.37,2013-01-14 16:21:00,
2013-01-14 11:26:00,49.5,45.1,30.01,West,270,0.8,2.3,85,0.00,OVC,,0.00,WeatherDisplay:10.37,2013-01-14 16:26:00,
2013-01-14 11:31:00,49.1,44.8,30.01,SW,225,1.0,2.3,85,0.00,OVC,,0.00,WeatherDisplay:10.37,2013-01-14 16:31:00,
2013-01-14 11:36:00,48.7,44.4,30.01,SW,225,1.0,2.3,85,0.00,OVC,,0.00,WeatherDisplay:10.37,2013-01-14 16:36:00,
2013-01-14 11:41:00,48.9,44.6,30.00,SSW,202,0.7,1.1,85,0.00,OVC,,0.00,WeatherDisplay:10.37,2013-01-14 16:41:00,
2013-01-14 11:46:00,48.9,44.6,30.00,SW,225,1.0,1.1,85,0.00,OVC,,0.00,WeatherDisplay:10.37,2013-01-14 16:46:00,
2013-01-14 11:51:00,49.5,45.1,30.00,NNW,338,1.6,3.5,85,0.00,OVC,,0.00,WeatherDisplay:10.37,2013-01-14 16:51:00,
2013-01-14 11:56:00,49.5,45.1,30.00,ENE,68,1.8,2.3,85,0.00,OVC,,0.00,WeatherDisplay:10.37,2013-01-14 16:56:00,
2013-01-14 12:01:00,49.5,45.1,30.02,South,180,2.2,3.5,85,0.00,SCT,,0.00,WeatherDisplay:10.37,2013-01-14 17:01:00,
2013-01-14 12:06:00,49.5,45.1,30.02,South,180,2.2,3.5,85,0.00,SCT,,0.00,WeatherDisplay:10.37,2013-01-14 17:06:00,
2013-01-14 12:11:00,50.0,45.7,30.02,NW,315,2.5,4.6,85,0.00,SCT,,0.00,WeatherDisplay:10.37,2013-01-14 17:11:00,
2013-01-14 12:16:00,50.0,45.7,30.02,South,180,2.2,2.2,85,0.00,SCT,,0.00,WeatherDisplay:10.37,2013-01-14 17:16:00,
2013-01-14 12:21:00,49.8,45.5,30.03,SW,225,2.0,3.5,85,0.00,SCT,,0.00,WeatherDisplay:10.37,2013-01-14 17:21:00,
2013-01-14 12:26:00,50.0,45.7,30.03,South,180,1.8,5.8,85,0.00,SCT,,0.00,WeatherDisplay:10.37,2013-01-14 17:26:00,
2013-01-14 12:31:00,50.5,46.2,30.03,WNW,292,2.5,5.8,85,0.00,SCT,,0.00,WeatherDisplay:10.37,2013-01-14 17:31:00,
2013-01-14 12:36:00,50.4,46.0,30.03,SW,225,2.9,2.9,85,0.00,SCT,,0.00,WeatherDisplay:10.37,2013-01-14 17:36:00,
2013-01-14 12:41:00,50.7,46.1,30.04,NE,45,2.5,5.8,84,0.00,SCT,,0.00,WeatherDisplay:10.37,2013-01-14 17:41:00,
2013-01-14 12:46:00,50.7,46.1,30.04,NNW,338,2.3,3.5,84,0.00,SCT,,0.00,WeatherDisplay:10.37,2013-01-14 17:46:00,
2013-01-14 12:51:00,50.7,46.1,30.04,North,0,2.1,2.3,84,0.00,SCT,,0.00,WeatherDisplay:10.37,2013-01-14 17:51:00,
2013-01-14 12:56:00,50.9,45.9,30.04,NNW,338,2.5,4.6,83,0.00,SCT,,0.00,WeatherDisplay:10.37,2013-01-14 17:56:00,
2013-01-14 13:01:00,50.7,45.7,30.06,SSW,202,2.8,3.5,83,0.00,CLR,,0.00,WeatherDisplay:10.37,2013-01-14 18:01:00,
2013-01-14 13:06:00,50.7,45.7,30.06,SW,225,3.0,10.4,83,0.00,CLR,,0.00,WeatherDisplay:10.37,2013-01-14 18:06:00,
2013-01-14 13:11:00,50.5,45.6,30.06,WNW,292,2.5,2.5,83,0.00,CLR,,0.00,WeatherDisplay:10.37,2013-01-14 18:11:00,
2013-01-14 13:16:00,50.7,45.7,30.06,NNE,22,2.3,3.5,83,0.00,CLR,,0.00,WeatherDisplay:10.37,2013-01-14 18:16:00,
2013-01-14 13:21:00,50.7,45.4,30.07,ENE,68,2.5,6.9,82,0.00,CLR,,0.00,WeatherDisplay:10.37,2013-01-14 18:21:00,
2013-01-14 13:26:00,51.3,46.3,30.07,SW,225,2.3,2.3,83,0.00,CLR,,0.00,WeatherDisplay:10.37,2013-01-14 18:26:00,
2013-01-14 13:31:00,51.3,46.0,30.07,WNW,292,2.1,4.6,82,0.00,CLR,,0.00,WeatherDisplay:10.37,2013-01-14 18:31:00,
2013-01-14 13:36:00,51.1,45.8,30.07,South,180,2.1,2.3,82,0.00,CLR,,0.00,WeatherDisplay:10.37,2013-01-14 18:36:00,
2013-01-14 13:41:00,52.7,46.4,30.08,WSW,248,2.3,4.6,79,0.00,CLR,,0.00,WeatherDisplay:10.37,2013-01-14 18:41:00,
2013-01-14 13:46:00,53.8,46.7,30.08,WNW,292,2.0,4.6,77,0.00,CLR,,0.00,WeatherDisplay:10.37,2013-01-14 18:46:00,
2013-01-14 13:51:00,52.9,44.8,30.08,West,270,2.1,2.6,74,0.00,CLR,,0.00,WeatherDisplay:10.37,2013-01-14 18:51:00,
2013-01-14 13:56:00,52.3,43.2,30.08,SSW,202,2.8,5.8,71,0.00,CLR,,0.00,WeatherDisplay:10.37,2013-01-14 18:56:00,
2013-01-14 14:01:00,52.9,43.7,30.08,East,90,3.0,4.6,71,0.00,CLR,,0.00,WeatherDisplay:10.37,2013-01-14 19:01:00,
2013-01-14 14:06:00,52.2,44.1,30.08,South,180,2.1,2.1,74,0.00,CLR,,0.00,WeatherDisplay:10.37,2013-01-14 19:06:00,
2013-01-14 14:11:00,51.6,42.2,30.08,WSW,248,2.1,2.3,70,0.00,CLR,,0.00,WeatherDisplay:10.37,2013-01-14 19:11:00,
2013-01-14 14:16:00,51.6,42.2,30.08,NNW,338,2.5,4.6,70,0.00,CLR,,0.00,WeatherDisplay:10.37,2013-01-14 19:16:00,
2013-01-14 14:21:00,51.6,42.9,30.11,WSW,248,2.6,3.5,72,0.00,CLR,,0.00,WeatherDisplay:10.37,2013-01-14 19:21:00,
2013-01-14 14:26:00,51.4,43.4,30.11,WSW,248,1.6,2.3,74,0.00,CLR,,0.00,WeatherDisplay:10.37,2013-01-14 19:26:00,
2013-01-14 14:31:00,51.3,41.8,30.11,NNE,22,1.5,6.9,70,0.00,CLR,,0.00,WeatherDisplay:10.37,2013-01-14 19:31:00,
2013-01-14 14:36:00,51.3,41.1,30.11,NW,315,2.1,5.8,68,0.00,CLR,,0.00,WeatherDisplay:10.37,2013-01-14 19:36:00,
2013-01-14 14:41:00,50.9,41.5,30.13,North,0,1.6,1.6,70,0.00,CLR,,0.00,WeatherDisplay:10.37,2013-01-14 19:41:00,
2013-01-14 14:46:00,50.9,40.3,30.13,WNW,292,1.1,2.3,67,0.00,CLR,,0.00,WeatherDisplay:10.37,2013-01-14 19:46:00,
2013-01-14 14:51:00,50.7,38.2,30.13,ESE,112,2.0,6.9,62,0.00,CLR,,0.00,WeatherDisplay:10.37,2013-01-14 19:51:00,
2013-01-14 14:56:00,50.5,36.7,30.13,SSE,158,2.3,4.6,59,0.00,CLR,,0.00,WeatherDisplay:10.37,2013-01-14 19:56:00,
2013-01-14 15:01:00,50.2,35.5,30.12,NW,315,2.8,3.5,57,0.00,CLR,,0.00,WeatherDisplay:10.37,2013-01-14 20:01:00,
2013-01-14 15:06:00,50.0,35.4,30.12,WNW,292,2.9,4.6,57,0.00,CLR,,0.00,WeatherDisplay:10.37,2013-01-14 20:06:00,
2013-01-14 15:11:00,49.5,35.3,30.12,SW,225,2.5,2.5,58,0.00,CLR,,0.00,WeatherDisplay:10.37,2013-01-14 20:11:00,
2013-01-14 15:16:00,49.1,34.9,30.12,NW,315,2.6,3.5,58,0.00,CLR,,0.00,WeatherDisplay:10.37,2013-01-14 20:16:00,
2013-01-14 15:21:00,48.7,34.2,30.08,North,0,2.4,2.4,57,0.00,CLR,,0.00,WeatherDisplay:10.37,2013-01-14 20:21:00,
2013-01-14 15:26:00,48.6,34.0,30.08,NNW,338,2.6,8.1,57,0.00,CLR,,0.00,WeatherDisplay:10.37,2013-01-14 20:26:00,
2013-01-14 15:31:00,48.6,32.7,30.08,SW,225,3.2,5.8,54,0.00,CLR,,0.00,WeatherDisplay:10.37,2013-01-14 20:31:00,
2013-01-14 15:36:00,48.2,32.8,30.08,SSW,202,2.8,5.8,55,0.00,CLR,,0.00,WeatherDisplay:10.37,2013-01-14 20:36:00,
2013-01-14 15:41:00,47.7,32.7,30.09,NNW,338,1.7,0.0,56,0.00,CLR,,0.00,WeatherDisplay:10.37,2013-01-14 20:41:00,
2013-01-14 15:46:00,47.1,31.3,30.09,NE,45,1.3,2.3,54,0.00,CLR,,0.00,WeatherDisplay:10.37,2013-01-14 20:46:00,
2013-01-14 15:51:00,47.3,30.5,30.09,WNW,292,2.0,3.5,52,0.00,CLR,,0.00,WeatherDisplay:10.37,2013-01-14 20:51:00,
2013-01-14 15:56:00,46.9,30.7,30.09,ESE,112,2.3,8.1,53,0.00,CLR,,0.00,WeatherDisplay:10.37,2013-01-14 20:56:00,
2013-01-14 16:01:00,46.8,31.4,30.10,NNW,338,2.3,3.5,55,0.00,CLR,,0.00,WeatherDisplay:10.37,2013-01-14 21:01:00,
2013-01-14 16:06:00,46.4,32.0,30.10,NE,45,1.6,2.3,57,0.00,CLR,,0.00,WeatherDisplay:10.37,2013-01-14 21:06:00,
2013-01-14 16:11:00,46.0,31.6,30.10,South,180,1.0,1.1,57,0.00,CLR,,0.00,WeatherDisplay:10.37,2013-01-14 21:11:00,
2013-01-14 16:16:00,45.7,31.7,30.10,NW,315,0.9,2.3,58,0.00,CLR,,0.00,WeatherDisplay:10.37,2013-01-14 21:16:00,
2013-01-14 16:21:00,44.8,32.1,30.12,NNW,338,0.5,0.0,61,0.00,CLR,,0.00,WeatherDisplay:10.37,2013-01-14 21:21:00,
2013-01-14 16:26:00,44.4,31.8,30.12,WNW,292,0.8,2.3,61,0.00,CLR,,0.00,WeatherDisplay:10.37,2013-01-14 21:26:00,
2013-01-14 16:31:00,44.4,32.2,30.12,WSW,248,1.4,2.3,62,0.00,CLR,,0.00,WeatherDisplay:10.37,2013-01-14 21:31:00,
2013-01-14 16:36:00,44.1,31.5,30.12,NE,45,1.6,4.6,61,0.00,CLR,,0.00,WeatherDisplay:10.37,2013-01-14 21:36:00,
2013-01-14 16:41:00,43.9,31.7,30.17,WNW,292,0.8,1.1,62,0.00,CLR,,0.00,WeatherDisplay:10.37,2013-01-14 21:41:00,
2013-01-14 16:46:00,43.5,31.4,30.17,SSE,158,0.3,0.0,62,0.00,CLR,,0.00,WeatherDisplay:10.37,2013-01-14 21:46:00,
2013-01-14 16:51:00,42.8,31.1,30.17,SW,225,0.1,1.1,63,0.00,CLR,,0.00,WeatherDisplay:10.37,2013-01-14 21:51:00,
2013-01-14 16:56:00,42.6,31.3,30.17,NNW,338,0.5,0.0,64,0.00,CLR,,0.00,WeatherDisplay:10.37,2013-01-14 21:56:00,
2013-01-14 17:01:00,42.1,31.5,30.18,SSE,158,0.6,1.1,66,0.00,CLR,,0.00,WeatherDisplay:10.37,2013-01-14 22:01:00,
2013-01-14 17:06:00,41.5,31.4,30.18,SSW,202,0.3,1.1,67,0.00,CLR,,0.00,WeatherDisplay:10.37,2013-01-14 22:06:00,
2013-01-14 17:11:00,40.8,31.4,30.18,SW,225,0.1,0.0,69,0.00,CLR,,0.00,WeatherDisplay:10.37,2013-01-14 22:11:00,
2013-01-14 17:16:00,40.5,31.1,30.18,NNE,22,0.1,0.0,69,0.00,CLR,,0.00,WeatherDisplay:10.37,2013-01-14 22:16:00,
2013-01-14 17:21:00,39.7,30.4,30.19,North,0,0.0,0.0,69,0.00,CLR,,0.00,WeatherDisplay:10.37,2013-01-14 22:21:00,
2013-01-14 17:26:00,39.6,30.9,30.19,WSW,248,0.0,0.0,71,0.00,CLR,,0.00,WeatherDisplay:10.37,2013-01-14 22:26:00,
2013-01-14 17:31:00,39.0,30.8,30.19,WNW,292,0.0,0.0,72,0.00,CLR,,0.00,WeatherDisplay:10.37,2013-01-14 22:31:00,
2013-01-14 17:36:00,38.7,30.7,30.19,WNW,292,0.1,0.0,73,0.00,CLR,,0.00,WeatherDisplay:10.37,2013-01-14 22:36:00,
2013-01-14 17:41:00,37.9,30.4,30.13,WNW,292,0.1,0.0,74,0.00,CLR,,0.00,WeatherDisplay:10.37,2013-01-14 22:41:00,
2013-01-14 17:46:00,37.8,30.5,30.13,WNW,292,0.0,0.0,75,0.00,CLR,,0.00,WeatherDisplay:10.37,2013-01-14 22:46:00,
2013-01-14 17:51:00,37.6,30.4,30.13,NNW,338,0.1,0.0,75,0.00,CLR,,0.00,WeatherDisplay:10.37,2013-01-14 22:51:00,
2013-01-14 17:56:00,37.6,30.7,30.13,SW,225,0.2,0.0,76,0.00,CLR,,0.00,WeatherDisplay:10.37,2013-01-14 22:56:00,
2013-01-14 18:01:00,37.0,30.5,30.12,SSW,202,0.1,0.0,77,0.00,CLR,,0.00,WeatherDisplay:10.37,2013-01-14 23:01:00,
2013-01-14 18:06:00,37.0,30.5,30.12,SSW,202,0.1,0.0,77,0.00,CLR,,0.00,WeatherDisplay:10.37,2013-01-14 23:06:00,
2013-01-14 18:11:00,36.9,30.6,30.12,West,270,0.0,0.0,78,0.00,CLR,,0.00,WeatherDisplay:10.37,2013-01-14 23:11:00,
2013-01-14 18:16:00,36.5,30.3,30.12,WNW,292,0.0,0.0,78,0.00,CLR,,0.00,WeatherDisplay:10.37,2013-01-14 23:16:00,
2013-01-14 18:21:00,36.5,30.3,30.15,West,270,0.0,0.0,78,0.00,CLR,,0.00,WeatherDisplay:10.37,2013-01-14 23:21:00,
2013-01-14 18:26:00,36.5,30.3,30.15,West,270,0.1,1.1,78,0.00,CLR,,0.00,WeatherDisplay:10.37,2013-01-14 23:26:00,
2013-01-14 18:31:00,36.5,30.3,30.15,WNW,292,0.3,3.5,78,0.00,CLR,,0.00,WeatherDisplay:10.37,2013-01-14 23:31:00,
2013-01-14 18:36:00,36.3,30.1,30.15,NNW,338,0.3,0.0,78,0.00,CLR,,0.00,WeatherDisplay:10.37,2013-01-14 23:36:00,
2013-01-14 18:41:00,36.7,30.5,30.20,NNW,338,0.2,1.1,78,0.00,CLR,,0.00,WeatherDisplay:10.37,2013-01-14 23:41:00,
2013-01-14 18:46:00,36.5,30.6,30.20,SW,225,0.2,0.0,79,0.00,CLR,,0.00,WeatherDisplay:10.37,2013-01-14 23:46:00,
2013-01-14 18:51:00,36.3,30.4,30.20,WNW,292,0.3,1.1,79,0.00,CLR,,0.00,WeatherDisplay:10.37,2013-01-14 23:51:00,
2013-01-14 18:56:00,36.5,30.6,30.20,NW,315,0.3,1.1,79,0.00,CLR,,0.00,WeatherDisplay:10.37,2013-01-14 23:56:00,
2013-01-14 19:01:00,37.0,30.8,30.17,WNW,292,0.7,1.1,78,0.00,CLR,,0.00,WeatherDisplay:10.37,2013-01-15 00:01:00,
2013-01-14 19:06:00,37.6,31.0,30.17,SW,225,0.6,0.0,77,0.00,CLR,,0.00,WeatherDisplay:10.37,2013-01-15 00:06:00,
2013-01-14 19:11:00,37.9,31.0,30.17,WSW,248,0.3,1.1,76,0.00,CLR,,0.00,WeatherDisplay:10.37,2013-01-15 00:11:00,
2013-01-14 19:16:00,37.9,31.0,30.17,NW,315,0.3,1.1,76,0.00,CLR,,0.00,WeatherDisplay:10.37,2013-01-15 00:16:00,
2013-01-14 19:21:00,37.8,30.9,30.17,WNW,292,0.6,2.3,76,0.00,CLR,,0.00,WeatherDisplay:10.37,2013-01-15 00:21:00,
2013-01-14 19:26:00,37.8,30.9,30.17,NW,315,0.6,1.1,76,0.00,CLR,,0.00,WeatherDisplay:10.37,2013-01-15 00:26:00,
2013-01-14 19:31:00,37.8,30.9,30.17,SW,225,0.3,0.0,76,0.00,CLR,,0.00,WeatherDisplay:10.37,2013-01-15 00:31:00,
2013-01-14 19:36:00,38.1,30.9,30.17,South,180,1.1,2.3,75,0.00,CLR,,0.00,WeatherDisplay:10.37,2013-01-15 00:36:00,
2013-01-14 19:41:00,38.3,30.7,30.23,NW,315,1.5,5.8,74,0.00,CLR,,0.00,WeatherDisplay:10.37,2013-01-15 00:41:00,
2013-01-14 19:46:00,38.5,30.9,30.23,WNW,292,1.3,1.3,74,0.00,CLR,,0.00,WeatherDisplay:10.37,2013-01-15 00:46:00,
2013-01-14 19:51:00,38.5,30.9,30.23,ESE,112,1.7,1.7,74,0.00,CLR,,0.00,WeatherDisplay:10.37,2013-01-15 00:51:00,
2013-01-14 19:56:00,38.5,30.6,30.23,West,270,1.5,2.3,73,0.00,CLR,,0.00,WeatherDisplay:10.37,2013-01-15 00:56:00,
2013-01-14 20:01:00,38.5,30.2,30.20,SW,225,1.4,1.4,72,0.00,CLR,,0.00,WeatherDisplay:10.37,2013-01-15 01:01:00,
2013-01-14 20:06:00,38.5,30.6,30.20,ENE,68,1.8,4.6,73,0.00,CLR,,0.00,WeatherDisplay:10.37,2013-01-15 01:06:00,
2013-01-14 20:11:00,38.7,30.4,30.20,WSW,248,2.2,3.5,72,0.00,CLR,,0.00,WeatherDisplay:10.37,2013-01-15 01:11:00,
2013-01-14 20:15:00,38.7,30.4,30.20,NW,307,0.0,0.0,72,0.00,CLR,CLR,0.00,WeatherDisplay:10.37,2013-01-15 01:15:00,
2013-01-14 20:16:00,38.5,30.2,30.20,SW,225,2.0,3.5,72,0.00,CLR,,0.00,WeatherDisplay:10.37,2013-01-15 01:16:00,
2013-01-14 20:50:00,38.3,30.1,30.19,SW,225,1.5,3.5,72,0.00,CLR,,0.00,WeatherDisplay:10.37,2013-01-15 01:50:00,
2013-01-14 20:55:00,37.9,29.7,30.19,NE,45,1.1,1.1,72,0.00,CLR,,0.00,WeatherDisplay:10.37,2013-01-15 01:55:00,
2013-01-14 21:00:00,38.1,29.5,30.19,NNW,338,1.1,3.5,71,0.00,CLR,,0.00,WeatherDisplay:10.37,2013-01-15 02:00:00,
2013-01-14 21:05:00,38.3,30.1,30.19,WNW,292,1.3,2.3,72,0.00,BKN,,0.00,WeatherDisplay:10.37,2013-01-15 02:05:00,
2013-01-14 21:10:00,37.8,29.5,30.19,SSW,202,1.3,0.0,72,0.00,BKN,,0.00,WeatherDisplay:10.37,2013-01-15 02:10:00,
2013-01-14 21:15:00,37.9,29.7,30.19,WNW,292,0.8,2.3,72,0.00,BKN,,0.00,WeatherDisplay:10.37,2013-01-15 02:15:00,
2013-01-14 21:20:00,37.8,29.9,30.18,SSW,202,0.5,2.3,73,0.00,BKN,,0.00,WeatherDisplay:10.37,2013-01-15 02:20:00,
2013-01-14 21:25:00,37.6,29.7,30.18,ESE,112,0.8,0.0,73,0.00,BKN,,0.00,WeatherDisplay:10.37,2013-01-15 02:25:00,
2013-01-14 21:30:00,37.4,29.5,30.18,NNE,22,0.9,3.5,73,0.00,BKN,,0.00,WeatherDisplay:10.37,2013-01-15 02:30:00,
2013-01-14 21:35:00,37.6,29.7,30.18,NW,315,0.7,0.0,73,0.00,BKN,,0.00,WeatherDisplay:10.37,2013-01-15 02:35:00,
2013-01-14 21:40:00,37.4,29.5,30.18,West,270,0.8,2.3,73,0.00,BKN,,0.00,WeatherDisplay:10.37,2013-01-15 02:40:00,
2013-01-14 21:45:00,37.0,29.5,30.18,South,180,0.7,1.1,74,0.00,BKN,,0.00,WeatherDisplay:10.37,2013-01-15 02:45:00,
2013-01-14 21:50:00,37.0,29.5,30.18,SW,225,0.6,0.0,74,0.00,BKN,,0.00,WeatherDisplay:10.37,2013-01-15 02:50:00,
2013-01-14 21:55:00,37.0,29.5,30.18,WNW,292,0.3,1.1,74,0.00,BKN,,0.00,WeatherDisplay:10.37,2013-01-15 02:55:00,
2013-01-14 22:00:00,36.9,29.3,30.20,WSW,248,0.8,1.1,74,0.00,BKN,,0.00,WeatherDisplay:10.37,2013-01-15 03:00:00,
2013-01-14 22:05:00,36.9,29.3,30.20,NNW,338,1.1,1.1,74,0.00,BKN,,0.00,WeatherDisplay:10.37,2013-01-15 03:05:00,
2013-01-14 22:10:00,36.9,29.0,30.20,SSW,202,1.4,4.6,73,0.00,BKN,,0.00,WeatherDisplay:10.37,2013-01-15 03:10:00,
2013-01-14 22:15:00,36.9,29.0,30.20,SW,225,1.4,2.3,73,0.00,BKN,,0.00,WeatherDisplay:10.37,2013-01-15 03:15:00,
2013-01-14 22:20:00,36.9,29.0,30.20,East,90,1.3,1.3,73,0.00,BKN,,0.00,WeatherDisplay:10.37,2013-01-15 03:20:00,
2013-01-14 22:25:00,36.7,28.8,30.20,SW,225,1.3,1.3,73,0.00,BKN,,0.00,WeatherDisplay:10.37,2013-01-15 03:25:00,
2013-01-14 22:30:00,36.9,29.0,30.20,West,270,1.5,2.3,73,0.00,BKN,,0.00,WeatherDisplay:10.37,2013-01-15 03:30:00,
2013-01-14 22:35:00,36.9,29.3,30.20,WSW,248,1.4,1.4,74,0.00,BKN,,0.00,WeatherDisplay:10.37,2013-01-15 03:35:00,
2013-01-14 22:40:00,36.5,29.0,30.22,WSW,248,0.9,1.1,74,0.00,BKN,,0.00,WeatherDisplay:10.37,2013-01-15 03:40:00,
2013-01-14 22:45:00,36.5,29.0,30.22,South,180,0.7,2.3,74,0.00,BKN,,0.00,WeatherDisplay:10.37,2013-01-15 03:45:00,
2013-01-14 22:50:00,36.5,29.0,30.22,SW,225,0.8,2.3,74,0.00,BKN,,0.00,WeatherDisplay:10.37,2013-01-15 03:50:00,
2013-01-14 22:55:00,36.5,28.7,30.22,NW,315,1.1,0.0,73,0.00,BKN,,0.00,WeatherDisplay:10.37,2013-01-15 03:55:00,
2013-01-14 23:00:00,36.5,28.7,30.22,ENE,68,1.1,4.6,73,0.00,BKN,,0.00,WeatherDisplay:10.37,2013-01-15 04:00:00,
2013-01-14 23:05:00,36.5,29.0,30.22,South,180,0.8,0.0,74,0.00,CLR,,0.00,WeatherDisplay:10.37,2013-01-15 04:05:00,
2013-01-14 23:11:00,36.5,28.7,30.22,SSW,202,0.7,1.1,73,0.00,CLR,,0.00,WeatherDisplay:10.37,2013-01-15 04:11:00,
2013-01-14 23:16:00,36.3,28.5,30.22,ESE,112,1.1,0.0,73,0.00,CLR,,0.00,WeatherDisplay:10.37,2013-01-15 04:16:00,
2013-01-14 23:21:00,36.3,28.5,30.23,SSW,202,1.1,1.1,73,0.00,CLR,,0.00,WeatherDisplay:10.37,2013-01-15 04:21:00,
2013-01-14 23:26:00,36.3,28.5,30.23,North,0,0.9,1.1,73,0.00,CLR,,0.00,WeatherDisplay:10.37,2013-01-15 04:26:00,
2013-01-14 23:31:00,36.3,28.5,30.23,NNW,338,0.8,2.3,73,0.00,CLR,,0.00,WeatherDisplay:10.37,2013-01-15 04:31:00,
2013-01-14 23:36:00,36.3,28.5,30.23,NW,315,0.9,0.0,73,0.00,CLR,,0.00,WeatherDisplay:10.37,2013-01-15 04:36:00,
2013-01-14 23:41:00,36.5,28.7,30.22,WNW,292,0.8,2.3,73,0.00,CLR,,0.00,WeatherDisplay:10.37,2013-01-15 04:41:00,
2013-01-14 23:46:00,36.3,28.5,30.22,NW,315,0.9,0.0,73,0.00,CLR,,0.00,WeatherDisplay:10.37,2013-01-15 04:46:00,
2013-01-14 23:51:00,36.3,28.5,30.22,SSW,202,1.1,4.6,73,0.00,CLR,,0.00,WeatherDisplay:10.37,2013-01-15 04:51:00,
2013-01-14 23:56:00,36.3,28.5,30.22,SW,225,1.3,0.0,73,0.00,CLR,,0.00,WeatherDisplay:10.37,2013-01-15 04:56:00,